Time;durP1;ratioP1;P1;durP2;ratioP2;P2;SDS_P1;SDS_P2;PMS_P1;PMS_P2;Temp;Humidity;BMP_temperature;BMP_pressure;BME280_temperature;BME280_humidity;BME280_pressure;Samples;Min_cycle;Max_cycle;Signal;HPM_P1;HPM_P2
2022/06/24 00:01:56;;;;;;;6.20;2.40;;;20.20;97.90;;;;;;5027602;28;20123;-78
2022/06/24 00:04:23;;;;;;;4.27;2.27;;;20.10;98.10;;;;;;5061229;28;20136;-78
2022/06/24 00:06:49;;;;;;;3.23;2.30;;;20.10;98.50;;;;;;5041963;28;20087;-77
2022/06/24 00:09:15;;;;;;;5.77;2.73;;;20.10;99.00;;;;;;5046181;28;20057;-78
2022/06/24 00:11:42;;;;;;;4.17;2.40;;;20.00;99.40;;;;;;5063235;28;20524;-78
2022/06/24 00:14:11;;;;;;;6.60;2.23;;;19.90;99.70;;;;;;5046402;28;20051;-78
2022/06/24 00:16:56;;;;;;;3.43;2.30;;;19.90;99.90;;;;;;5060776;28;20506;-78
2022/06/24 00:19:23;;;;;;;4.90;2.40;;;19.80;99.90;;;;;;5036249;28;20052;-77
2022/06/24 00:21:57;;;;;;;4.67;2.37;;;19.80;99.90;;;;;;5044974;28;20127;-78
2022/06/24 00:24:23;;;;;;;3.90;2.43;;;19.80;99.90;;;;;;5025233;28;20037;-78
2022/06/24 00:26:49;;;;;;;4.60;2.57;;;19.70;99.90;;;;;;5044393;28;20131;-78
2022/06/24 00:29:17;;;;;;;4.23;3.17;;;19.60;99.90;;;;;;5046509;28;20479;-77
2022/06/24 00:31:59;;;;;;;3.97;3.10;;;19.60;99.90;;;;;;5043868;28;20135;-78
2022/06/24 00:34:25;;;;;;;3.57;3.27;;;19.60;99.90;;;;;;5029900;28;20044;-78
2022/06/24 00:36:51;;;;;;;4.63;2.80;;;19.50;99.90;;;;;;5063830;28;20502;-78
2022/06/24 00:39:16;;;;;;;8.03;3.17;;;19.50;99.90;;;;;;5047234;28;20135;-78
2022/06/24 00:41:42;;;;;;;4.97;3.30;;;19.40;99.90;;;;;;5057645;28;20052;-78
2022/06/24 00:44:11;;;;;;;4.43;3.00;;;19.40;99.90;;;;;;5047027;28;20383;-78
2022/06/24 00:46:41;;;;;;;5.03;2.80;;;19.30;99.90;;;;;;5040022;28;20045;-76
2022/06/24 00:49:09;;;;;;;3.17;2.60;;;19.30;99.90;;;;;;5026954;28;20486;-76
2022/06/24 00:51:37;;;;;;;3.93;2.17;;;19.20;99.90;;;;;;5036998;28;20070;-76
2022/06/24 00:54:07;;;;;;;4.33;2.47;;;19.20;99.90;;;;;;5021386;28;20040;-77
2022/06/24 00:56:33;;;;;;;3.10;2.33;;;19.10;99.90;;;;;;5044390;28;20086;-76
2022/06/24 00:59:01;;;;;;;5.37;3.20;;;19.10;99.90;;;;;;5043977;28;20041;-78
2022/06/24 01:01:27;;;;;;;2.90;2.30;;;19.10;99.90;;;;;;5045949;28;20059;-78
2022/06/24 01:03:56;;;;;;;6.93;2.43;;;19.00;99.90;;;;;;5029749;28;20047;-78
2022/06/24 01:06:22;;;;;;;4.17;2.37;;;19.00;99.90;;;;;;5049422;28;20506;-78
2022/06/24 01:08:48;;;;;;;8.33;2.67;;;19.00;99.90;;;;;;5052151;28;20060;-78
2022/06/24 01:11:22;;;;;;;7.70;2.50;;;18.90;99.90;;;;;;5068053;28;20122;-78
2022/06/24 01:13:48;;;;;;;5.50;2.70;;;18.90;99.90;;;;;;5032085;28;20131;-78
2022/06/24 01:16:14;;;;;;;4.47;2.83;;;18.90;99.90;;;;;;5066938;28;20171;-77
2022/06/24 01:18:39;;;;;;;3.37;2.83;;;18.80;99.90;;;;;;5049685;28;20040;-77
2022/06/24 01:21:06;;;;;;;5.83;3.10;;;18.80;99.90;;;;;;5058637;28;20041;-78
2022/06/24 01:23:33;;;;;;;4.50;3.00;;;18.80;99.90;;;;;;5034244;28;20044;-77
2022/06/24 01:25:59;;;;;;;3.77;2.87;;;18.70;99.90;;;;;;5032752;28;20040;-77
2022/06/24 01:28:25;;;;;;;6.80;3.27;;;18.70;99.90;;;;;;5051334;28;20502;-77
2022/06/24 01:30:51;;;;;;;4.27;3.03;;;18.70;99.90;;;;;;5059504;28;20048;-78
2022/06/24 01:33:16;;;;;;;5.80;2.73;;;18.60;99.90;;;;;;5050957;28;20059;-77
2022/06/24 01:35:42;;;;;;;5.13;3.20;;;18.60;99.90;;;;;;5033893;28;20070;-78
2022/06/24 01:38:08;;;;;;;4.27;2.83;;;18.60;99.90;;;;;;5069041;28;20070;-78
2022/06/24 01:40:35;;;;;;;4.53;2.90;;;18.50;99.90;;;;;;5051850;28;20489;-78
2022/06/24 01:43:02;;;;;;;4.27;3.33;;;18.50;99.90;;;;;;5054857;28;20085;-78
2022/06/24 01:45:27;;;;;;;5.00;3.20;;;18.50;99.90;;;;;;5049139;28;20483;-77
2022/06/24 01:47:53;;;;;;;5.93;3.23;;;18.40;99.90;;;;;;5066202;28;20158;-78
2022/06/24 01:50:19;;;;;;;4.13;3.00;;;18.40;99.90;;;;;;5051140;28;20044;-77
2022/06/24 01:52:45;;;;;;;4.60;2.90;;;18.30;99.90;;;;;;5051195;28;20490;-78
2022/06/24 01:55:10;;;;;;;3.60;2.87;;;18.30;99.90;;;;;;5054358;28;20525;-77
2022/06/24 01:57:37;;;;;;;3.80;3.03;;;18.30;99.90;;;;;;5066560;28;20050;-78
2022/06/24 02:00:04;;;;;;;4.27;3.30;;;18.20;99.90;;;;;;5046904;28;20064;-77
2022/06/24 02:02:30;;;;;;;4.47;3.43;;;18.20;99.90;;;;;;5050455;28;20036;-77
2022/06/24 02:04:56;;;;;;;4.30;3.30;;;18.20;99.90;;;;;;5050677;28;20032;-78
2022/06/24 02:07:22;;;;;;;3.57;3.27;;;18.10;99.90;;;;;;5034227;28;20094;-77
2022/06/24 02:15:18;;;;;;;5.60;2.77;;;18.00;99.90;;;;;;5048848;28;20045;-77
2022/06/24 02:17:44;;;;;;;9.40;3.10;;;18.00;99.90;;;;;;5029772;28;20122;-78
2022/06/24 02:20:10;;;;;;;4.67;3.23;;;17.90;99.90;;;;;;5066458;28;20082;-78
2022/06/24 02:22:36;;;;;;;5.80;3.37;;;18.00;99.90;;;;;;5035380;28;20048;-78
2022/06/24 02:25:01;;;;;;;4.00;3.60;;;18.00;99.90;;;;;;5064584;28;20383;-78
2022/06/24 02:27:27;;;;;;;4.37;3.77;;;17.90;99.90;;;;;;5063340;28;20063;-77
2022/06/24 02:29:53;;;;;;;8.87;3.27;;;17.90;99.90;;;;;;5065183;28;20064;-78
2022/06/24 02:32:20;;;;;;;6.17;3.60;;;17.90;99.90;;;;;;5045757;28;20561;-78
2022/06/24 02:34:45;;;;;;;3.50;3.20;;;17.90;99.90;;;;;;5033200;28;20491;-78
2022/06/24 02:37:11;;;;;;;4.80;3.27;;;18.00;99.90;;;;;;5065316;28;20102;-78
2022/06/24 02:39:37;;;;;;;6.70;3.73;;;17.90;99.90;;;;;;5048934;28;20066;-78
2022/06/24 02:42:03;;;;;;;6.47;3.47;;;17.90;99.90;;;;;;5031951;28;20040;-77
2022/06/24 02:44:29;;;;;;;9.30;3.70;;;17.90;99.90;;;;;;5040460;28;20037;-78
2022/06/24 02:46:55;;;;;;;4.93;3.37;;;17.90;99.90;;;;;;5065569;28;20047;-77
2022/06/24 02:49:22;;;;;;;5.43;3.60;;;18.00;99.90;;;;;;5048166;28;20083;-77
2022/06/24 02:51:48;;;;;;;4.63;3.40;;;18.00;99.90;;;;;;5062582;28;20048;-77
2022/06/24 02:54:13;;;;;;;3.73;3.43;;;18.00;99.90;;;;;;5062596;28;20055;-77
2022/06/24 02:56:39;;;;;;;3.40;3.10;;;18.00;99.90;;;;;;5057686;28;20048;-77
2022/06/24 02:59:05;;;;;;;4.80;3.47;;;18.00;99.90;;;;;;5064029;28;20058;-77
2022/06/24 03:01:30;;;;;;;6.43;3.63;;;18.00;99.90;;;;;;5018009;28;20051;-77
2022/06/24 03:03:56;;;;;;;3.70;3.30;;;18.10;99.90;;;;;;5067505;28;20545;-78
2022/06/24 03:06:23;;;;;;;7.23;3.60;;;18.10;99.90;;;;;;5065938;28;20043;-78
2022/06/24 03:08:49;;;;;;;5.23;3.07;;;18.10;99.90;;;;;;5051967;28;20102;-78
2022/06/24 03:11:15;;;;;;;7.73;3.10;;;18.10;99.90;;;;;;5047559;28;20909;-78
2022/06/24 03:13:41;;;;;;;8.00;4.00;;;18.10;99.90;;;;;;5047047;28;20115;-78
2022/06/24 03:16:06;;;;;;;6.00;3.97;;;18.20;99.90;;;;;;5055014;28;20055;-78
2022/06/24 03:18:32;;;;;;;6.47;3.63;;;18.20;99.90;;;;;;5015386;28;20553;-78
2022/06/24 03:20:58;;;;;;;5.10;3.60;;;18.20;99.90;;;;;;5046750;28;20043;-78
2022/06/24 03:23:25;;;;;;;6.83;3.60;;;18.20;99.90;;;;;;5039890;28;20040;-78
2022/06/24 03:25:51;;;;;;;7.50;3.33;;;18.20;99.90;;;;;;5046879;28;20041;-77
2022/06/24 03:28:16;;;;;;;5.40;3.87;;;18.30;99.90;;;;;;5031803;28;20046;-77
2022/06/24 03:30:42;;;;;;;4.20;3.67;;;18.30;99.90;;;;;;5044201;28;20490;-78
2022/06/24 03:33:08;;;;;;;4.80;3.70;;;18.40;99.90;;;;;;5066319;28;20040;-78
2022/06/24 03:35:33;;;;;;;3.97;3.47;;;18.40;99.90;;;;;;5047751;28;20048;-78
2022/06/24 03:37:59;;;;;;;5.80;3.87;;;18.40;99.90;;;;;;5048944;28;20067;-78
2022/06/24 03:40:26;;;;;;;6.30;3.80;;;18.40;99.90;;;;;;5059385;28;20119;-77
2022/06/24 03:42:53;;;;;;;5.70;3.83;;;18.50;99.90;;;;;;5047012;28;20514;-77
2022/06/24 03:45:19;;;;;;;5.97;3.90;;;18.50;99.90;;;;;;5047914;28;20036;-77
2022/06/24 03:47:45;;;;;;;8.10;3.70;;;18.60;99.90;;;;;;5047139;28;20036;-77
2022/06/24 03:50:10;;;;;;;7.10;3.50;;;18.60;99.90;;;;;;5049230;28;20415;-78
2022/06/24 03:52:36;;;;;;;7.73;3.67;;;18.70;99.90;;;;;;5026573;28;20135;-77
2022/06/24 03:55:03;;;;;;;6.53;3.80;;;18.70;99.90;;;;;;5062264;28;20049;-78
2022/06/24 03:57:30;;;;;;;9.20;3.70;;;18.70;99.90;;;;;;5047156;28;20036;-78
2022/06/24 03:59:55;;;;;;;5.83;3.60;;;18.70;99.90;;;;;;5059096;28;20135;-77
2022/06/24 04:02:23;;;;;;;7.20;3.80;;;18.70;99.90;;;;;;5047697;28;20685;-78
2022/06/24 04:04:49;;;;;;;8.93;4.10;;;18.70;99.90;;;;;;5049004;28;20398;-78
2022/06/24 04:07:14;;;;;;;6.03;4.17;;;18.70;99.90;;;;;;5029208;28;20040;-76
2022/06/24 04:09:40;;;;;;;5.70;3.97;;;18.70;99.90;;;;;;5048278;28;20037;-78
2022/06/24 04:12:06;;;;;;;5.20;3.57;;;18.70;99.90;;;;;;5047886;28;20040;-78
2022/06/24 04:17:31;;;;;;;4.77;3.23;;;18.80;99.90;;;;;;4986130;28;20048;-78
2022/06/24 04:19:57;;;;;;;5.77;3.10;;;18.80;99.90;;;;;;5046372;28;20490;-78
2022/06/24 04:22:23;;;;;;;6.40;3.70;;;18.90;99.90;;;;;;5061899;28;20055;-78
2022/06/24 04:24:49;;;;;;;6.17;3.33;;;19.00;99.90;;;;;;5025065;28;20040;-77
2022/06/24 04:27:15;;;;;;;7.20;3.37;;;19.10;99.90;;;;;;5052547;28;20186;-78
2022/06/24 04:29:42;;;;;;;6.13;3.90;;;19.20;99.90;;;;;;5046569;28;20572;-77
2022/06/24 04:32:08;;;;;;;5.07;3.40;;;19.20;99.90;;;;;;5061017;28;20072;-78
2022/06/24 04:34:35;;;;;;;5.03;3.00;;;19.30;99.90;;;;;;5047897;28;20157;-76
2022/06/24 04:37:01;;;;;;;6.87;3.47;;;19.40;99.90;;;;;;5060424;28;20068;-77
2022/06/24 04:39:26;;;;;;;6.97;3.80;;;19.50;99.90;;;;;;5047634;28;20137;-77
2022/06/24 04:41:52;;;;;;;7.40;3.40;;;19.60;99.90;;;;;;5029763;28;20051;-76
2022/06/24 04:44:18;;;;;;;6.90;3.80;;;19.70;99.90;;;;;;5044592;28;20136;-76
2022/06/24 04:46:45;;;;;;;6.90;3.57;;;19.80;99.90;;;;;;5047160;28;20044;-78
2022/06/24 04:49:11;;;;;;;5.53;4.93;;;19.80;99.90;;;;;;5061984;28;20104;-77
2022/06/24 04:51:37;;;;;;;11.67;5.80;;;20.00;99.90;;;;;;5013610;28;20050;-77
2022/06/24 04:54:02;;;;;;;9.47;7.20;;;20.00;99.90;;;;;;5062171;28;20041;-77
2022/06/24 04:56:28;;;;;;;9.47;6.10;;;20.10;99.90;;;;;;5049903;28;20490;-79
2022/06/24 04:58:54;;;;;;;9.37;7.43;;;20.20;99.90;;;;;;5050585;28;20079;-76
2022/06/24 05:01:20;;;;;;;11.57;7.23;;;20.20;99.90;;;;;;5011527;28;20045;-76
2022/06/24 05:03:47;;;;;;;11.30;7.13;;;20.30;99.90;;;;;;5033299;28;20043;-77
2022/06/24 05:06:13;;;;;;;11.63;7.00;;;20.50;99.90;;;;;;5032520;28;20049;-78
2022/06/24 05:08:38;;;;;;;12.87;6.77;;;20.60;99.90;;;;;;5065413;28;20517;-79
2022/06/24 05:11:05;;;;;;;9.00;5.70;;;20.70;99.90;;;;;;5045388;28;20062;-77
2022/06/24 05:13:31;;;;;;;11.17;6.10;;;20.80;99.90;;;;;;5047157;28;20051;-78
2022/06/24 05:15:58;;;;;;;12.13;6.70;;;21.00;99.90;;;;;;5061879;28;20049;-78
2022/06/24 05:18:23;;;;;;;11.53;5.90;;;21.00;99.90;;;;;;5048336;28;20079;-77
2022/06/24 05:20:50;;;;;;;7.53;5.93;;;21.10;99.90;;;;;;5043503;28;20036;-77
2022/06/24 05:23:16;;;;;;;8.17;5.60;;;21.10;99.90;;;;;;5029871;28;20612;-79
2022/06/24 05:25:42;;;;;;;7.90;5.67;;;21.10;99.90;;;;;;5023415;28;20033;-77
2022/06/24 05:28:08;;;;;;;9.10;5.23;;;21.10;99.90;;;;;;5048993;28;20057;-76
2022/06/24 05:30:33;;;;;;;11.47;5.50;;;21.10;99.90;;;;;;5041874;28;20560;-77
2022/06/24 05:32:59;;;;;;;8.27;5.37;;;21.10;99.90;;;;;;5044503;28;20502;-78
2022/06/24 05:35:25;;;;;;;6.70;5.33;;;21.10;99.90;;;;;;5042309;28;20040;-77
2022/06/24 05:37:52;;;;;;;10.67;5.93;;;21.00;99.90;;;;;;5049011;28;20052;-75
2022/06/24 05:40:18;;;;;;;8.03;5.20;;;20.90;99.90;;;;;;5047085;28;20098;-77
2022/06/24 05:42:43;;;;;;;9.77;5.13;;;20.90;99.90;;;;;;5047944;28;20052;-77
2022/06/24 05:45:10;;;;;;;20.60;7.43;;;20.80;99.90;;;;;;5028255;28;20043;-77
2022/06/24 05:47:35;;;;;;;21.50;8.00;;;20.70;99.90;;;;;;5039787;28;20056;-79
2022/06/24 05:50:01;;;;;;;14.60;7.07;;;20.60;99.90;;;;;;5016053;28;20037;-80
2022/06/24 05:55:13;;;;;;;12.70;6.87;;;20.50;99.90;;;;;;5045552;28;20071;-80
2022/06/24 05:57:39;;;;;;;10.20;6.33;;;20.30;99.90;;;;;;5018335;28;20076;-80
2022/06/24 06:00:06;;;;;;;11.00;7.60;;;20.30;99.90;;;;;;5029303;28;20098;-81
2022/06/24 06:02:32;;;;;;;10.00;7.33;;;20.20;99.90;;;;;;5038459;28;20041;-81
2022/06/24 06:04:58;;;;;;;11.00;7.33;;;20.20;99.90;;;;;;5047187;28;20060;-80
2022/06/24 06:07:25;;;;;;;10.53;7.17;;;20.10;99.90;;;;;;5048815;28;20119;-80
2022/06/24 06:09:50;;;;;;;9.97;7.50;;;20.10;99.90;;;;;;5034423;28;20036;-80
2022/06/24 06:12:18;;;;;;;9.20;6.33;;;20.20;99.90;;;;;;5013203;28;20044;-80
2022/06/24 06:14:44;;;;;;;7.40;6.27;;;20.20;99.90;;;;;;5054193;28;20496;-81
2022/06/24 06:17:10;;;;;;;10.87;6.83;;;20.20;99.90;;;;;;5069974;28;20063;-80
2022/06/24 06:19:37;;;;;;;7.77;6.17;;;20.30;99.90;;;;;;5052426;28;20530;-80
2022/06/24 06:22:03;;;;;;;8.97;6.60;;;20.40;99.90;;;;;;5068393;28;20048;-81
2022/06/24 06:24:30;;;;;;;9.07;6.13;;;20.50;99.90;;;;;;5039496;28;20048;-82
2022/06/24 06:26:56;;;;;;;8.87;6.27;;;20.60;99.90;;;;;;5041596;28;20040;-80
2022/06/24 06:29:23;;;;;;;6.30;5.70;;;20.70;99.90;;;;;;5030197;28;20042;-80
2022/06/24 06:31:50;;;;;;;8.37;6.37;;;20.70;99.90;;;;;;5018013;28;20543;-81
2022/06/24 06:34:16;;;;;;;8.83;6.10;;;20.80;99.90;;;;;;5012741;28;20054;-82
2022/06/24 06:36:42;;;;;;;6.87;5.20;;;20.80;99.90;;;;;;5051611;28;20032;-82
2022/06/24 06:39:08;;;;;;;7.87;6.53;;;20.70;99.90;;;;;;5055970;28;20056;-81
2022/06/24 06:41:34;;;;;;;8.57;6.67;;;20.70;99.90;;;;;;5034486;28;20083;-81
2022/06/24 06:44:00;;;;;;;9.77;7.97;;;20.60;99.90;;;;;;5017746;28;20043;-81
2022/06/24 06:46:27;;;;;;;10.27;6.77;;;20.60;99.90;;;;;;5047856;28;20048;-82
2022/06/24 06:48:52;;;;;;;9.20;7.07;;;20.60;99.90;;;;;;5048092;28;20127;-80
2022/06/24 06:51:18;;;;;;;9.57;7.43;;;20.50;99.90;;;;;;5022741;28;20054;-80
2022/06/24 06:53:44;;;;;;;10.17;8.27;;;20.50;99.90;;;;;;5024699;28;20037;-81
2022/06/24 06:56:10;;;;;;;10.17;7.73;;;20.40;99.90;;;;;;5031148;28;20126;-81
2022/06/24 06:58:36;;;;;;;9.77;7.37;;;20.40;99.90;;;;;;5013341;28;20045;-80
2022/06/24 07:01:01;;;;;;;9.40;8.03;;;20.50;99.90;;;;;;5027506;28;20043;-80
2022/06/24 07:03:29;;;;;;;7.20;6.30;;;20.50;99.90;;;;;;5045569;28;20426;-80
2022/06/24 07:05:54;;;;;;;9.57;7.00;;;20.50;99.90;;;;;;5029847;28;20170;-80
2022/06/24 07:08:20;;;;;;;9.50;6.20;;;20.50;99.90;;;;;;5037059;28;20115;-80
2022/06/24 07:10:46;;;;;;;6.47;5.80;;;20.60;99.90;;;;;;5030155;28;20124;-80
2022/06/24 07:13:12;;;;;;;7.33;6.33;;;20.50;99.90;;;;;;5010700;28;20500;-81
2022/06/24 07:15:39;;;;;;;6.93;6.10;;;20.50;99.90;;;;;;5010423;28;20044;-80
2022/06/24 07:18:04;;;;;;;6.93;5.87;;;20.50;99.90;;;;;;5009059;28;20065;-81
2022/06/24 07:20:33;;;;;;;7.00;6.17;;;20.50;99.90;;;;;;5032628;28;20122;-80
2022/06/24 07:22:59;;;;;;;6.80;6.17;;;20.50;99.90;;;;;;5043368;28;20044;-81
2022/06/24 07:25:24;;;;;;;7.23;6.07;;;20.50;99.90;;;;;;5045184;28;20048;-81
2022/06/24 07:27:50;;;;;;;7.10;5.17;;;20.50;99.90;;;;;;5019799;28;20430;-82
2022/06/24 07:30:16;;;;;;;6.97;5.20;;;20.60;99.90;;;;;;5006327;28;20048;-82
2022/06/24 07:32:42;;;;;;;7.37;6.07;;;20.50;99.90;;;;;;5039418;28;20072;-81
2022/06/24 07:35:08;;;;;;;7.30;5.63;;;20.40;99.90;;;;;;5023322;28;20033;-81
2022/06/24 07:37:35;;;;;;;7.63;6.07;;;20.40;99.90;;;;;;5041526;28;20044;-81
2022/06/24 07:40:01;;;;;;;9.67;6.97;;;20.40;99.90;;;;;;5036037;28;20051;-82
2022/06/24 07:42:27;;;;;;;5.33;4.70;;;20.40;99.90;;;;;;5041466;28;20147;-81
2022/06/24 07:44:53;;;;;;;6.87;5.70;;;20.40;99.90;;;;;;5011262;28;20562;-81
2022/06/24 07:47:19;;;;;;;7.53;5.20;;;20.40;99.90;;;;;;5021719;28;20044;-81
2022/06/24 07:49:44;;;;;;;7.03;6.43;;;20.40;99.90;;;;;;5009812;28;20050;-81
2022/06/24 07:52:11;;;;;;;7.87;6.10;;;20.40;99.90;;;;;;5039704;28;20051;-81
2022/06/24 07:54:38;;;;;;;10.23;6.83;;;20.40;99.90;;;;;;5012196;28;20044;-81
2022/06/24 07:57:05;;;;;;;7.33;6.17;;;20.40;99.90;;;;;;5039295;28;20045;-81
2022/06/24 07:59:33;;;;;;;6.67;5.77;;;20.40;99.90;;;;;;5043695;28;20052;-81
2022/06/24 08:02:00;;;;;;;9.97;6.50;;;20.50;99.90;;;;;;5043396;28;20040;-81
2022/06/24 08:04:30;;;;;;;8.07;6.70;;;20.50;99.90;;;;;;5045250;28;20498;-81
2022/06/24 08:06:57;;;;;;;6.57;5.87;;;20.50;99.90;;;;;;5004241;28;20036;-81
2022/06/24 08:09:25;;;;;;;7.70;6.57;;;20.60;99.90;;;;;;5007520;28;20051;-81
2022/06/24 08:11:53;;;;;;;6.60;6.00;;;20.60;99.90;;;;;;5029408;28;20028;-81
2022/06/24 08:14:20;;;;;;;9.00;7.77;;;20.50;99.90;;;;;;5029309;28;20414;-82
2022/06/24 08:16:46;;;;;;;8.40;7.50;;;20.50;99.90;;;;;;5048517;28;20124;-81
2022/06/24 08:19:12;;;;;;;9.40;7.23;;;20.50;99.90;;;;;;5013511;28;20098;-81
2022/06/24 08:21:38;;;;;;;9.27;7.67;;;20.50;99.90;;;;;;5029945;28;20053;-81
2022/06/24 08:24:04;;;;;;;9.37;6.40;;;20.50;99.90;;;;;;5018677;28;20047;-80
2022/06/24 08:26:30;;;;;;;9.03;7.17;;;20.50;99.90;;;;;;5027333;28;20540;-81
2022/06/24 08:28:58;;;;;;;7.87;7.13;;;20.50;99.90;;;;;;5040365;28;20057;-81
2022/06/24 08:31:23;;;;;;;8.23;7.27;;;20.40;99.90;;;;;;5036140;28;20048;-81
2022/06/24 08:33:49;;;;;;;9.00;7.13;;;20.40;99.90;;;;;;5027296;28;20482;-81
2022/06/24 08:36:15;;;;;;;9.57;7.20;;;20.40;99.90;;;;;;5043223;28;20041;-80
2022/06/24 08:38:41;;;;;;;8.77;7.73;;;20.40;99.90;;;;;;5057537;28;20066;-80
2022/06/24 08:41:07;;;;;;;9.93;7.60;;;20.40;99.90;;;;;;5026291;28;20040;-80
2022/06/24 08:43:35;;;;;;;8.63;7.77;;;20.40;99.90;;;;;;5024541;28;20433;-80
2022/06/24 08:46:03;;;;;;;9.13;6.40;;;20.40;99.90;;;;;;5094129;22;20051;-77
2022/06/24 08:48:31;;;;;;;7.07;6.37;;;20.50;99.90;;;;;;5074808;28;20051;-77
2022/06/24 08:50:57;;;;;;;9.00;6.37;;;20.50;99.90;;;;;;5056095;28;20096;-76
2022/06/24 08:53:26;;;;;;;10.43;7.20;;;20.60;99.90;;;;;;5066768;28;20035;-77
2022/06/24 08:55:52;;;;;;;8.97;7.60;;;20.50;99.90;;;;;;5061447;28;20047;-77
2022/06/24 08:58:19;;;;;;;12.00;8.97;;;20.50;99.90;;;;;;5061709;28;20036;-76
2022/06/24 09:00:45;;;;;;;9.07;8.17;;;20.50;99.90;;;;;;5082675;28;20032;-76
2022/06/24 09:03:12;;;;;;;9.90;8.47;;;20.50;99.90;;;;;;5082934;28;20055;-76
2022/06/24 09:05:40;;;;;;;10.57;8.17;;;20.50;99.90;;;;;;5062652;28;20043;-76
2022/06/24 09:08:07;;;;;;;9.50;8.50;;;20.60;99.90;;;;;;5064025;28;20035;-76
2022/06/24 09:10:35;;;;;;;8.60;7.70;;;20.70;99.90;;;;;;5051199;28;20127;-76
2022/06/24 09:13:01;;;;;;;8.03;7.20;;;20.70;99.90;;;;;;5082398;28;20043;-76
2022/06/24 09:15:27;;;;;;;10.17;7.67;;;20.70;99.90;;;;;;5083083;28;20170;-76
2022/06/24 09:17:54;;;;;;;9.37;7.73;;;20.70;99.90;;;;;;5050550;28;20252;-76
2022/06/24 09:20:22;;;;;;;8.83;7.97;;;20.70;99.90;;;;;;5064869;28;20081;-76
2022/06/24 09:22:49;;;;;;;10.17;7.93;;;20.70;99.90;;;;;;5080437;28;20479;-76
2022/06/24 09:25:15;;;;;;;11.00;8.27;;;20.70;99.90;;;;;;5069264;28;20042;-76
2022/06/24 09:27:43;;;;;;;11.37;9.80;;;20.70;99.90;;;;;;5064102;28;20501;-77
2022/06/24 09:30:10;;;;;;;12.77;11.37;;;20.70;99.90;;;;;;5066070;28;20051;-76
2022/06/24 09:32:48;;;;;;;11.83;9.10;;;20.70;99.90;;;;;;5065786;28;20052;-76
2022/06/24 09:35:14;;;;;;;12.87;10.97;;;20.70;99.90;;;;;;5065498;28;20066;-76
2022/06/24 09:37:43;;;;;;;12.87;11.37;;;20.60;99.90;;;;;;5068257;28;20040;-78
2022/06/24 09:40:17;;;;;;;13.43;10.90;;;20.60;99.90;;;;;;5082696;28;20046;-78
2022/06/24 09:42:52;;;;;;;15.80;9.60;;;20.50;99.90;;;;;;5067902;28;20050;-79
2022/06/24 09:45:17;;;;;;;37.13;12.75;;;20.40;99.90;;;;;;5066066;27;20044;-77
2022/06/24 09:47:48;;;;;;;12.90;6.93;;;20.20;99.90;;;;;;5049243;28;20390;-78
2022/06/24 09:50:14;;;;;;;12.77;6.97;;;20.00;99.90;;;;;;5071029;28;20123;-80
2022/06/24 09:52:42;;;;;;;14.20;7.00;;;19.80;99.90;;;;;;5065350;28;20173;-80
2022/06/24 09:55:10;;;;;;;11.20;6.53;;;19.70;99.90;;;;;;5078279;28;20159;-80
2022/06/24 09:57:37;;;;;;;8.27;5.60;;;19.60;99.90;;;;;;5065292;28;20061;-80
2022/06/24 10:02:49;;;;;;;6.37;3.93;;;19.20;99.90;;;;;;5063789;28;20074;-80
2022/06/24 10:05:18;;;;;;;8.13;4.30;;;19.10;99.90;;;;;;5065942;28;20043;-81
2022/06/24 10:07:47;;;;;;;6.73;4.57;;;19.00;99.90;;;;;;5067318;28;20134;-81
2022/06/24 10:10:15;;;;;;;9.53;5.43;;;18.90;99.90;;;;;;5068238;28;20047;-80
2022/06/24 10:12:46;;;;;;;8.23;5.80;;;18.90;99.90;;;;;;5045462;28;20067;-79
2022/06/24 10:15:14;;;;;;;7.03;5.87;;;18.70;99.90;;;;;;5048402;28;20069;-78
2022/06/24 10:17:42;;;;;;;9.67;6.80;;;18.70;99.90;;;;;;5049305;28;20044;-78
2022/06/24 10:20:11;;;;;;;10.40;7.70;;;18.70;99.90;;;;;;5064554;28;20497;-79
2022/06/24 10:22:37;;;;;;;9.90;8.17;;;18.70;99.90;;;;;;5055220;28;20089;-79
2022/06/24 10:25:06;;;;;;;11.40;7.60;;;18.70;99.90;;;;;;5068813;28;20044;-79
2022/06/24 10:28:11;;;;;;;10.43;6.80;;;18.70;99.90;;;;;;5083471;28;20055;-80
2022/06/24 10:30:56;;;;;;;8.50;5.90;;;18.60;99.90;;;;;;5053739;28;20056;-78
2022/06/24 10:33:25;;;;;;;8.20;5.30;;;18.60;99.90;;;;;;5064011;28;20109;-79
2022/06/24 10:35:58;;;;;;;7.67;4.63;;;18.60;99.90;;;;;;5065693;28;20135;-79
2022/06/24 10:38:26;;;;;;;7.55;5.03;;;18.50;99.90;;;;;;5082829;28;20040;-79
2022/06/24 10:40:56;;;;;;;7.97;5.20;;;18.50;99.90;;;;;;5048283;28;20377;-78
2022/06/24 10:43:36;;;;;;;10.00;5.33;;;18.50;99.90;;;;;;5045949;28;20048;-78
2022/06/24 10:46:19;;;;;;;9.63;4.97;;;18.50;99.90;;;;;;5067219;28;20059;-78
2022/06/24 10:49:01;;;;;;;8.43;5.47;;;18.50;99.90;;;;;;5083895;28;20062;-78
2022/06/24 10:51:31;;;;;;;7.23;4.60;;;18.50;99.90;;;;;;5057725;28;20043;-78
2022/06/24 10:54:16;;;;;;;6.57;4.87;;;18.50;99.90;;;;;;5081002;28;20071;-77
2022/06/24 10:56:46;;;;;;;7.93;4.97;;;18.50;99.90;;;;;;5066521;28;20171;-77
2022/06/24 10:59:13;;;;;;;8.13;5.33;;;18.50;99.90;;;;;;5049752;28;20071;-77
2022/06/24 11:01:44;;;;;;;7.03;5.07;;;18.60;99.90;;;;;;5065486;28;20047;-77
2022/06/24 11:04:14;;;;;;;8.93;5.87;;;18.60;99.90;;;;;;5064805;28;20153;-77
2022/06/24 11:07:02;;;;;;;7.97;4.93;;;18.60;99.90;;;;;;5064657;28;20040;-77
2022/06/24 11:09:28;;;;;;;7.70;5.03;;;18.70;99.90;;;;;;5078354;28;20140;-78
2022/06/24 11:11:56;;;;;;;6.97;5.63;;;18.80;99.90;;;;;;5082398;28;20051;-78
2022/06/24 11:14:25;;;;;;;8.60;5.10;;;18.80;99.90;;;;;;5067070;28;20043;-78
2022/06/24 11:16:51;;;;;;;8.93;4.50;;;18.90;99.90;;;;;;5059514;28;20048;-77
2022/06/24 11:19:17;;;;;;;12.03;6.87;;;19.00;99.90;;;;;;5064048;27;20047;-77
2022/06/24 11:21:46;;;;;;;5.77;5.23;;;19.20;99.90;;;;;;5086453;28;20481;-77
2022/06/24 11:24:13;;;;;;;7.40;6.17;;;19.30;99.90;;;;;;5087958;28;20050;-77
2022/06/24 11:26:39;;;;;;;8.83;5.57;;;19.40;99.90;;;;;;5061717;28;20763;-77
2022/06/24 11:29:06;;;;;;;7.77;4.37;;;19.50;99.90;;;;;;5069116;28;20081;-77
2022/06/24 11:31:33;;;;;;;6.13;4.37;;;19.60;99.90;;;;;;5070874;28;20139;-78
2022/06/24 11:34:08;;;;;;;7.83;5.17;;;19.80;99.90;;;;;;5047652;28;20039;-77
2022/06/24 11:36:35;;;;;;;5.47;3.53;;;19.90;99.90;;;;;;5071524;28;20123;-78
2022/06/24 11:39:04;;;;;;;3.73;3.10;;;20.10;99.90;;;;;;5049809;28;20047;-78
2022/06/24 11:41:31;;;;;;;5.77;4.80;;;20.20;99.90;;;;;;5061238;28;20047;-76
2022/06/24 11:43:57;;;;;;;6.80;4.70;;;20.30;99.90;;;;;;5063882;28;20569;-79
2022/06/24 11:46:24;;;;;;;8.93;5.30;;;20.50;99.90;;;;;;5067755;28;20038;-78
2022/06/24 11:49:05;;;;;;;4.23;3.67;;;20.70;99.90;;;;;;5056917;28;20111;-78
2022/06/24 11:51:30;;;;;;;4.50;3.63;;;20.80;99.90;;;;;;5059995;28;20040;-78
2022/06/24 11:53:57;;;;;;;4.87;4.37;;;20.80;99.90;;;;;;5088519;28;20067;-78
2022/06/24 11:56:24;;;;;;;7.30;3.97;;;20.80;99.90;;;;;;5051449;28;20039;-79
2022/06/24 11:58:50;;;;;;;6.27;4.97;;;20.80;99.90;;;;;;5066065;28;20054;-79
2022/06/24 12:01:16;;;;;;;8.57;5.57;;;20.90;99.90;;;;;;5073473;28;20062;-79
2022/06/24 12:03:46;;;;;;;7.87;6.57;;;20.90;99.90;;;;;;5048397;28;20775;-79
2022/06/24 12:06:12;;;;;;;8.40;6.87;;;20.90;99.90;;;;;;5070845;28;20413;-79
2022/06/24 12:08:38;;;;;;;8.63;6.40;;;21.10;99.90;;;;;;5069362;28;20044;-79
2022/06/24 12:11:13;;;;;;;8.97;6.70;;;21.40;99.90;;;;;;5049828;28;20043;-79
2022/06/24 12:13:39;;;;;;;7.30;6.53;;;21.60;99.90;;;;;;5083554;28;20036;-78
2022/06/24 12:16:05;;;;;;;9.20;7.90;;;21.90;99.90;;;;;;5041059;28;20050;-81
2022/06/24 12:18:32;;;;;;;9.00;8.20;;;22.10;99.90;;;;;;5046844;28;20685;-80
2022/06/24 12:21:01;;;;;;;9.73;8.82;;;22.10;99.90;;;;;;5080814;28;20578;-81
2022/06/24 12:23:32;;;;;;;9.40;8.33;;;22.10;99.90;;;;;;5067213;28;20395;-82
2022/06/24 12:25:58;;;;;;;10.68;9.25;;;22.00;99.90;;;;;;5065895;28;20055;-81
2022/06/24 12:28:26;;;;;;;11.43;9.47;;;22.00;99.90;;;;;;5081140;28;20096;-80
2022/06/24 12:30:57;;;;;;;12.80;11.60;;;22.00;99.90;;;;;;5084790;28;20036;-81
2022/06/24 12:33:24;;;;;;;12.88;11.60;;;22.00;99.90;;;;;;5080316;28;20131;-78
2022/06/24 12:36:11;;;;;;;13.03;11.73;;;22.00;99.90;;;;;;5049853;28;20417;-79
2022/06/24 12:38:39;;;;;;;13.55;12.35;;;22.10;99.90;;;;;;5081659;28;20081;-79
2022/06/24 12:41:07;;;;;;;12.80;11.55;;;22.30;99.90;;;;;;5067995;28;20750;-75
2022/06/24 12:43:32;;;;;;;12.35;11.35;;;22.40;99.90;;;;;;5064138;28;20054;-78
2022/06/24 12:46:01;;;;;;;16.20;14.63;;;22.40;99.90;;;;;;5048296;28;20477;-78
2022/06/24 12:51:13;;;;;;;14.88;13.57;;;22.70;99.90;;;;;;5080693;28;20051;-77
2022/06/24 12:53:45;;;;;;;14.70;13.20;;;22.90;99.90;;;;;;5065176;28;20051;-77
2022/06/24 12:56:10;;;;;;;13.27;11.98;;;22.90;99.90;;;;;;5064396;28;20051;-77
2022/06/24 12:58:36;;;;;;;16.02;14.52;;;23.10;99.90;;;;;;5082393;28;20136;-78
2022/06/24 13:01:02;;;;;;;16.60;14.80;;;23.20;99.90;;;;;;5066605;28;20040;-77